首页
METAR-TAF:

METAR-TAF

机场 :

Faribault Municipal Airport

法里博, 明尼蘇達州, 美国

纬度: 44-20N, 经度: 093-19W, 海拔: 322米

当前天气观测

该预报发布于29分钟前的21:15 UTC
风速11节,风向西
温度 -15°C
湿度 78%
气压 1014 hPa
能見度: 4.8公里
天空无云

METAR: KFBL 142115Z AUTO 28011KT 3SM HZ CLR M15/M18 A2994 RMK AO2

时间: 15:44 (21:44 UTC)


TAF: 丢失

超过4000个机场的气象观测和天气预报(METAR&TAF报告)。

可查询的气象台以黄色和红色小点在地图上表示。

将鼠标移到小点上方,可查看气象台名称。

然后点击查看天气观测和预报。

如需切换地图:点击带黑十字的绿色按钮放大地图;点击带横线的绿色按钮缩小地图;或者点击绿色箭头查看邻近地区的地图。


METAR-TAF: